< < Back
Terminal Aerodrome Forecast


Current Version              Previous Versions:   1  2  3  4  5  6  7  8  9  

Terminal Aerodrome Forecast

859
FTUS42 KGSP 311001 AAA
TAFHKY
TAF AMD
KHKY 311001Z 3110/0106 00000KT P6SM SCT020
      TEMPO 3110/3114 5SM BR BKN010
     FM311600 05003KT P6SM BKN040
     FM010100 00000KT P6SM SCT050 BKN200=

Latest METAR

810
SAUS70 KWBC 312100 RRG
MTRHKY
METAR KHKY 312053Z AUTO 09004KT 10SM FEW049 30/17 A3007 RMK AO2 SLP161
T03000167 56015


USA.gov is the U.S. government's official web portal to all federal, state and local government web resources and services.